sensor_id;sensor_type;location;lat;lon;timestamp;pressure;altitude;pressure_sealevel;temperature;humidity
77725;BME280;66892;53.236;6.550;2023-06-19T00:01:16;101030.06;;;20.08;74.54
77725;BME280;66892;53.236;6.550;2023-06-19T00:03:42;101019.16;;;20.13;74.54
77725;BME280;66892;53.236;6.550;2023-06-19T00:06:08;101012.72;;;20.17;74.10
77725;BME280;66892;53.236;6.550;2023-06-19T00:08:34;101009.84;;;20.21;73.67
77725;BME280;66892;53.236;6.550;2023-06-19T00:11:02;101008.81;;;20.25;72.80
77725;BME280;66892;53.236;6.550;2023-06-19T00:13:28;100997.84;;;20.31;72.50
77725;BME280;66892;53.236;6.550;2023-06-19T00:15:55;101000.19;;;20.39;71.49
77725;BME280;66892;53.236;6.550;2023-06-19T00:18:26;101003.59;;;20.44;71.02
77725;BME280;66892;53.236;6.550;2023-06-19T00:20:52;100996.28;;;20.47;71.26
77725;BME280;66892;53.236;6.550;2023-06-19T00:23:20;100987.88;;;20.55;69.48
77725;BME280;66892;53.236;6.550;2023-06-19T00:25:46;100979.44;;;20.64;69.16
77725;BME280;66892;53.236;6.550;2023-06-19T00:28:12;100985.56;;;20.68;69.28
77725;BME280;66892;53.236;6.550;2023-06-19T00:30:39;100976.50;;;20.70;68.79
77725;BME280;66892;53.236;6.550;2023-06-19T00:33:07;100974.34;;;20.78;68.27
77725;BME280;66892;53.236;6.550;2023-06-19T00:35:33;100971.47;;;20.83;67.87
77725;BME280;66892;53.236;6.550;2023-06-19T00:37:59;100963.41;;;20.83;67.52
77725;BME280;66892;53.236;6.550;2023-06-19T00:40:29;100965.97;;;20.86;67.52
77725;BME280;66892;53.236;6.550;2023-06-19T00:42:56;100965.06;;;20.85;67.70
77725;BME280;66892;53.236;6.550;2023-06-19T00:45:22;100963.31;;;20.84;67.78
77725;BME280;66892;53.236;6.550;2023-06-19T00:47:50;100946.44;;;20.81;67.21
77725;BME280;66892;53.236;6.550;2023-06-19T00:50:18;100949.97;;;20.83;67.28
77725;BME280;66892;53.236;6.550;2023-06-19T00:52:44;100953.44;;;20.85;66.95
77725;BME280;66892;53.236;6.550;2023-06-19T00:55:11;100949.69;;;20.89;66.65
77725;BME280;66892;53.236;6.550;2023-06-19T00:57:37;100944.91;;;20.95;65.91
77725;BME280;66892;53.236;6.550;2023-06-19T01:00:06;100939.44;;;20.97;66.05
77725;BME280;66892;53.236;6.550;2023-06-19T01:02:34;100935.91;;;20.96;65.78
77725;BME280;66892;53.236;6.550;2023-06-19T01:05:00;100931.53;;;20.94;65.38
77725;BME280;66892;53.236;6.550;2023-06-19T01:07:32;100936.72;;;20.98;64.54
77725;BME280;66892;53.236;6.550;2023-06-19T01:10:03;100932.28;;;20.97;64.81
77725;BME280;66892;53.236;6.550;2023-06-19T01:12:33;100925.09;;;20.98;64.38
77725;BME280;66892;53.236;6.550;2023-06-19T01:15:03;100934.69;;;21.03;63.55
77725;BME280;66892;53.236;6.550;2023-06-19T01:17:29;100928.38;;;21.04;63.08
77725;BME280;66892;53.236;6.550;2023-06-19T01:19:57;100910.47;;;21.03;62.64
77725;BME280;66892;53.236;6.550;2023-06-19T01:22:28;100920.31;;;21.04;62.62
77725;BME280;66892;53.236;6.550;2023-06-19T01:24:54;100910.34;;;21.07;62.23
77725;BME280;66892;53.236;6.550;2023-06-19T01:27:20;100905.78;;;21.09;61.87
77725;BME280;66892;53.236;6.550;2023-06-19T01:29:46;100904.91;;;21.08;61.74
77725;BME280;66892;53.236;6.550;2023-06-19T01:32:15;100903.88;;;21.12;60.97
77725;BME280;66892;53.236;6.550;2023-06-19T01:34:44;100901.91;;;21.16;60.42
77725;BME280;66892;53.236;6.550;2023-06-19T01:37:12;100904.47;;;21.19;60.40
77725;BME280;66892;53.236;6.550;2023-06-19T01:39:40;100903.59;;;21.18;60.34
77725;BME280;66892;53.236;6.550;2023-06-19T01:42:07;100893.69;;;21.19;60.31
77725;BME280;66892;53.236;6.550;2023-06-19T01:44:35;100899.81;;;21.22;60.30
77725;BME280;66892;53.236;6.550;2023-06-19T01:47:08;100903.50;;;21.20;60.31
77725;BME280;66892;53.236;6.550;2023-06-19T01:49:34;100903.63;;;21.17;60.17
77725;BME280;66892;53.236;6.550;2023-06-19T01:52:00;100896.53;;;21.16;60.12
77725;BME280;66892;53.236;6.550;2023-06-19T01:54:26;100895.50;;;21.18;59.89
77725;BME280;66892;53.236;6.550;2023-06-19T01:56:55;100883.94;;;21.16;59.95
77725;BME280;66892;53.236;6.550;2023-06-19T01:59:21;100882.34;;;21.12;59.95
77725;BME280;66892;53.236;6.550;2023-06-19T02:01:47;100888.72;;;21.10;60.02
77725;BME280;66892;53.236;6.550;2023-06-19T02:04:13;100882.41;;;21.11;59.94
77725;BME280;66892;53.236;6.550;2023-06-19T02:06:39;100869.94;;;21.08;60.11
77725;BME280;66892;53.236;6.550;2023-06-19T02:09:05;100879.91;;;21.06;60.19
77725;BME280;66892;53.236;6.550;2023-06-19T02:11:33;100869.94;;;21.08;59.96
77725;BME280;66892;53.236;6.550;2023-06-19T02:14:01;100874.53;;;21.06;59.70
77725;BME280;66892;53.236;6.550;2023-06-19T02:16:27;100875.47;;;21.05;59.90
77725;BME280;66892;53.236;6.550;2023-06-19T02:18:53;100880.13;;;21.01;60.06
77725;BME280;66892;53.236;6.550;2023-06-19T02:21:19;100870.09;;;21.05;59.87
77725;BME280;66892;53.236;6.550;2023-06-19T02:23:45;100880.91;;;21.03;59.96
77725;BME280;66892;53.236;6.550;2023-06-19T02:26:11;100865.59;;;21.06;59.51
77725;BME280;66892;53.236;6.550;2023-06-19T02:28:37;100869.91;;;21.10;58.92
77725;BME280;66892;53.236;6.550;2023-06-19T02:31:04;100870.81;;;21.09;59.02
77725;BME280;66892;53.236;6.550;2023-06-19T02:33:30;100869.94;;;21.08;58.43
77725;BME280;66892;53.236;6.550;2023-06-19T02:35:58;100867.22;;;21.10;58.21
77725;BME280;66892;53.236;6.550;2023-06-19T02:38:24;100861.63;;;21.14;57.42
77725;BME280;66892;53.236;6.550;2023-06-19T02:40:50;100863.28;;;21.17;57.48
77725;BME280;66892;53.236;6.550;2023-06-19T02:43:16;100862.56;;;21.13;57.42
77725;BME280;66892;53.236;6.550;2023-06-19T02:45:42;100858.22;;;21.11;57.44
77725;BME280;66892;53.236;6.550;2023-06-19T02:48:10;100866.38;;;21.08;57.07
77725;BME280;66892;53.236;6.550;2023-06-19T02:50:36;100866.34;;;21.09;57.26
77725;BME280;66892;53.236;6.550;2023-06-19T02:53:02;100871.84;;;21.06;56.53
77725;BME280;66892;53.236;6.550;2023-06-19T02:55:28;100866.47;;;21.06;56.87
77725;BME280;66892;53.236;6.550;2023-06-19T02:57:54;100876.50;;;21.02;56.68
77725;BME280;66892;53.236;6.550;2023-06-19T03:00:20;100877.41;;;21.01;56.89
77725;BME280;66892;53.236;6.550;2023-06-19T03:02:46;100881.00;;;21.02;56.70
77725;BME280;66892;53.236;6.550;2023-06-19T03:05:15;100877.41;;;21.01;56.36
77725;BME280;66892;53.236;6.550;2023-06-19T03:07:41;100876.50;;;21.02;56.19
77725;BME280;66892;53.236;6.550;2023-06-19T03:10:08;100874.09;;;20.96;56.67
77725;BME280;66892;53.236;6.550;2023-06-19T03:12:34;100871.50;;;20.93;56.74
77725;BME280;66892;53.236;6.550;2023-06-19T03:15:00;100877.03;;;20.90;56.80
77725;BME280;66892;53.236;6.550;2023-06-19T03:17:26;100881.56;;;20.90;56.62
77725;BME280;66892;53.236;6.550;2023-06-19T03:19:52;100877.16;;;20.87;56.75
77725;BME280;66892;53.236;6.550;2023-06-19T03:22:20;100875.31;;;20.89;56.61
77725;BME280;66892;53.236;6.550;2023-06-19T03:24:47;100876.09;;;20.91;57.02
77725;BME280;66892;53.236;6.550;2023-06-19T03:27:13;100877.75;;;20.94;56.65
77725;BME280;66892;53.236;6.550;2023-06-19T03:29:39;100880.59;;;20.91;56.51
77725;BME280;66892;53.236;6.550;2023-06-19T03:32:06;100884.00;;;20.94;56.22
77725;BME280;66892;53.236;6.550;2023-06-19T03:34:32;100883.22;;;20.92;56.53
77725;BME280;66892;53.236;6.550;2023-06-19T03:36:58;100885.31;;;20.86;57.05
77725;BME280;66892;53.236;6.550;2023-06-19T03:39:25;100883.66;;;20.83;57.22
77725;BME280;66892;53.236;6.550;2023-06-19T03:41:51;100897.13;;;20.82;57.57
77725;BME280;66892;53.236;6.550;2023-06-19T03:44:17;100898.94;;;20.81;57.43
77725;BME280;66892;53.236;6.550;2023-06-19T03:46:43;100896.53;;;20.75;58.23
77725;BME280;66892;53.236;6.550;2023-06-19T03:49:09;100900.38;;;20.70;58.25
77725;BME280;66892;53.236;6.550;2023-06-19T03:51:35;100898.56;;;20.70;58.57
77725;BME280;66892;53.236;6.550;2023-06-19T03:54:01;100888.88;;;20.66;59.04
77725;BME280;66892;53.236;6.550;2023-06-19T03:56:29;100890.63;;;20.67;59.16
77725;BME280;66892;53.236;6.550;2023-06-19T03:58:55;100900.16;;;20.74;58.96
77725;BME280;66892;53.236;6.550;2023-06-19T04:01:21;100893.56;;;20.81;58.54
77725;BME280;66892;53.236;6.550;2023-06-19T04:03:47;100895.03;;;20.88;58.61
77725;BME280;66892;53.236;6.550;2023-06-19T04:06:13;100897.81;;;20.87;58.96
77725;BME280;66892;53.236;6.550;2023-06-19T04:08:39;100901.50;;;20.84;59.14
77725;BME280;66892;53.236;6.550;2023-06-19T04:11:05;100901.59;;;20.83;59.74
77725;BME280;66892;53.236;6.550;2023-06-19T04:13:32;100899.78;;;20.83;60.25
77725;BME280;66892;53.236;6.550;2023-06-19T04:15:58;100899.09;;;20.78;60.68
77725;BME280;66892;53.236;6.550;2023-06-19T04:18:24;100903.25;;;20.85;60.82
77725;BME280;66892;53.236;6.550;2023-06-19T04:20:50;100903.13;;;20.88;61.17
77725;BME280;66892;53.236;6.550;2023-06-19T04:23:16;100901.44;;;20.86;61.57
77725;BME280;66892;53.236;6.550;2023-06-19T04:25:42;100902.78;;;20.76;62.12
77725;BME280;66892;53.236;6.550;2023-06-19T04:28:08;100904.81;;;20.71;62.73
77725;BME280;66892;53.236;6.550;2023-06-19T04:30:35;100905.00;;;20.66;62.95
77725;BME280;66892;53.236;6.550;2023-06-19T04:33:05;100907.09;;;20.60;63.32
77725;BME280;66892;53.236;6.550;2023-06-19T04:35:32;100904.41;;;20.60;64.04
77725;BME280;66892;53.236;6.550;2023-06-19T04:37:58;100908.84;;;20.61;64.31
77725;BME280;66892;53.236;6.550;2023-06-19T04:40:27;100908.88;;;20.59;64.51
77725;BME280;66892;53.236;6.550;2023-06-19T04:42:53;100922.41;;;20.58;65.00
77725;BME280;66892;53.236;6.550;2023-06-19T04:45:19;100923.34;;;20.57;65.37
77725;BME280;66892;53.236;6.550;2023-06-19T04:47:47;100927.84;;;20.56;65.59
77725;BME280;66892;53.236;6.550;2023-06-19T04:50:13;100922.31;;;20.59;66.08
77725;BME280;66892;53.236;6.550;2023-06-19T04:52:39;100931.25;;;20.60;65.93
77725;BME280;66892;53.236;6.550;2023-06-19T04:55:07;100928.25;;;20.67;66.39
77725;BME280;66892;53.236;6.550;2023-06-19T04:57:36;100922.47;;;20.76;66.87
77725;BME280;66892;53.236;6.550;2023-06-19T05:00:04;100937.44;;;20.82;66.93
77725;BME280;66892;53.236;6.550;2023-06-19T05:02:32;100934.63;;;20.85;67.15
77725;BME280;66892;53.236;6.550;2023-06-19T05:05:00;100938.47;;;20.99;67.10
77725;BME280;66892;53.236;6.550;2023-06-19T05:07:28;100948.16;;;21.42;66.00
77725;BME280;66892;53.236;6.550;2023-06-19T05:09:54;100939.25;;;21.98;64.05
77725;BME280;66892;53.236;6.550;2023-06-19T05:12:20;100939.59;;;22.62;62.55
77725;BME280;66892;53.236;6.550;2023-06-19T05:14:46;100945.06;;;23.12;60.14
77725;BME280;66892;53.236;6.550;2023-06-19T05:17:12;100925.00;;;23.50;59.46
77725;BME280;66892;53.236;6.550;2023-06-19T05:19:38;100932.34;;;23.95;57.71
77725;BME280;66892;53.236;6.550;2023-06-19T05:22:06;100928.00;;;24.24;56.75
77725;BME280;66892;53.236;6.550;2023-06-19T05:24:32;100937.44;;;24.47;55.97
77725;BME280;66892;53.236;6.550;2023-06-19T05:26:58;100934.56;;;24.80;55.08
77725;BME280;66892;53.236;6.550;2023-06-19T05:29:24;100937.72;;;25.02;54.65
77725;BME280;66892;53.236;6.550;2023-06-19T05:31:50;100945.78;;;25.32;53.77
77725;BME280;66892;53.236;6.550;2023-06-19T05:34:16;100939.13;;;25.23;53.73
77725;BME280;66892;53.236;6.550;2023-06-19T05:36:43;100950.44;;;25.30;54.10
77725;BME280;66892;53.236;6.550;2023-06-19T05:39:13;100940.19;;;25.49;53.20
77725;BME280;66892;53.236;6.550;2023-06-19T05:41:39;100941.13;;;25.34;53.78
77725;BME280;66892;53.236;6.550;2023-06-19T05:44:05;100947.56;;;25.61;53.40
77725;BME280;66892;53.236;6.550;2023-06-19T05:46:31;100950.63;;;25.83;51.91
77725;BME280;66892;53.236;6.550;2023-06-19T05:49:02;100951.31;;;25.87;51.88
77725;BME280;66892;53.236;6.550;2023-06-19T05:51:29;100953.38;;;26.24;51.65
77725;BME280;66892;53.236;6.550;2023-06-19T05:53:55;100957.53;;;25.75;52.84
77725;BME280;66892;53.236;6.550;2023-06-19T05:56:28;100959.03;;;25.22;54.45
77725;BME280;66892;53.236;6.550;2023-06-19T05:58:54;100968.97;;;24.78;55.98
77725;BME280;66892;53.236;6.550;2023-06-19T06:01:20;100971.59;;;24.34;57.07
77725;BME280;66892;53.236;6.550;2023-06-19T06:03:46;100981.41;;;23.72;59.72
77725;BME280;66892;53.236;6.550;2023-06-19T06:06:12;100985.91;;;23.39;61.29
77725;BME280;66892;53.236;6.550;2023-06-19T06:08:38;100972.03;;;23.12;62.18
77725;BME280;66892;53.236;6.550;2023-06-19T06:11:04;100973.94;;;22.58;64.23
77725;BME280;66892;53.236;6.550;2023-06-19T06:13:31;100990.47;;;22.34;65.04
77725;BME280;66892;53.236;6.550;2023-06-19T06:15:57;100986.88;;;22.33;65.54
77725;BME280;66892;53.236;6.550;2023-06-19T06:18:24;100999.19;;;22.39;65.80
77725;BME280;66892;53.236;6.550;2023-06-19T06:20:50;101000.28;;;22.35;66.09
77725;BME280;66892;53.236;6.550;2023-06-19T06:23:16;101002.75;;;22.39;65.95
77725;BME280;66892;53.236;6.550;2023-06-19T06:25:42;101005.75;;;22.33;66.49
77725;BME280;66892;53.236;6.550;2023-06-19T06:28:08;100999.72;;;22.28;67.13
77725;BME280;66892;53.236;6.550;2023-06-19T06:30:35;101008.81;;;22.26;67.01
77725;BME280;66892;53.236;6.550;2023-06-19T06:33:01;100999.84;;;22.25;67.46
77725;BME280;66892;53.236;6.550;2023-06-19T06:35:27;101010.56;;;22.27;67.46
77725;BME280;66892;53.236;6.550;2023-06-19T06:37:54;101005.19;;;22.27;67.79
77725;BME280;66892;53.236;6.550;2023-06-19T06:40:20;101011.28;;;22.30;67.69
77725;BME280;66892;53.236;6.550;2023-06-19T06:42:46;101005.81;;;22.32;67.83
77725;BME280;66892;53.236;6.550;2023-06-19T06:45:13;101002.94;;;22.18;68.43
77725;BME280;66892;53.236;6.550;2023-06-19T06:47:40;101005.09;;;22.10;68.83
77725;BME280;66892;53.236;6.550;2023-06-19T06:50:07;101015.44;;;22.00;69.60
77725;BME280;66892;53.236;6.550;2023-06-19T06:52:33;101024.34;;;22.02;69.81
77725;BME280;66892;53.236;6.550;2023-06-19T06:54:59;101024.56;;;21.97;70.13
77725;BME280;66892;53.236;6.550;2023-06-19T06:57:25;101019.31;;;21.94;70.46
77725;BME280;66892;53.236;6.550;2023-06-19T06:59:51;101031.38;;;21.86;70.64
77725;BME280;66892;53.236;6.550;2023-06-19T07:02:17;101037.97;;;21.79;71.42
77725;BME280;66892;53.236;6.550;2023-06-19T07:04:45;101031.91;;;21.74;72.46
77725;BME280;66892;53.236;6.550;2023-06-19T07:07:11;101036.38;;;21.75;72.77
77725;BME280;66892;53.236;6.550;2023-06-19T07:09:37;101039.78;;;21.78;73.14
77725;BME280;66892;53.236;6.550;2023-06-19T07:12:04;101044.25;;;21.79;73.17
77725;BME280;66892;53.236;6.550;2023-06-19T07:14:30;101045.88;;;21.63;74.06
77725;BME280;66892;53.236;6.550;2023-06-19T07:16:56;101052.44;;;21.58;74.60
77725;BME280;66892;53.236;6.550;2023-06-19T07:19:22;101053.91;;;21.44;75.86
77725;BME280;66892;53.236;6.550;2023-06-19T07:21:51;101055.72;;;21.24;76.79
77725;BME280;66892;53.236;6.550;2023-06-19T07:24:17;101059.97;;;21.09;78.76
77725;BME280;66892;53.236;6.550;2023-06-19T07:26:45;101066.72;;;20.76;80.86
77725;BME280;66892;53.236;6.550;2023-06-19T07:29:11;101052.47;;;20.52;82.42
77725;BME280;66892;53.236;6.550;2023-06-19T07:31:37;101071.16;;;20.33;83.39
77725;BME280;66892;53.236;6.550;2023-06-19T07:34:04;101066.16;;;20.23;84.64
77725;BME280;66892;53.236;6.550;2023-06-19T07:36:30;101064.84;;;20.11;85.67
77725;BME280;66892;53.236;6.550;2023-06-19T07:38:57;101080.41;;;20.03;86.51
77725;BME280;66892;53.236;6.550;2023-06-19T07:41:23;101076.94;;;19.99;87.28
77725;BME280;66892;53.236;6.550;2023-06-19T07:43:49;101075.31;;;19.95;88.04
77725;BME280;66892;53.236;6.550;2023-06-19T07:46:15;101081.56;;;19.96;87.42
77725;BME280;66892;53.236;6.550;2023-06-19T07:48:42;101086.81;;;19.99;86.94
77725;BME280;66892;53.236;6.550;2023-06-19T07:51:08;101083.88;;;20.05;86.15
77725;BME280;66892;53.236;6.550;2023-06-19T07:53:34;101076.59;;;20.09;85.50
77725;BME280;66892;53.236;6.550;2023-06-19T07:56:02;101091.69;;;20.11;84.42
77725;BME280;66892;53.236;6.550;2023-06-19T07:58:28;101094.91;;;20.21;84.53
77725;BME280;66892;53.236;6.550;2023-06-19T08:00:56;101093.47;;;20.35;82.89
77725;BME280;66892;53.236;6.550;2023-06-19T08:03:22;101093.03;;;20.46;81.79
77725;BME280;66892;53.236;6.550;2023-06-19T08:05:50;101102.47;;;20.56;81.00
77725;BME280;66892;53.236;6.550;2023-06-19T08:08:16;101100.88;;;20.74;80.84
77725;BME280;66892;53.236;6.550;2023-06-19T08:10:42;101106.09;;;20.98;79.91
77725;BME280;66892;53.236;6.550;2023-06-19T08:13:09;101099.34;;;21.10;78.70
77725;BME280;66892;53.236;6.550;2023-06-19T08:15:37;101110.16;;;21.09;78.30
77725;BME280;66892;53.236;6.550;2023-06-19T08:18:03;101124.50;;;21.09;78.06
77725;BME280;66892;53.236;6.550;2023-06-19T08:20:29;101120.88;;;21.10;77.02
77725;BME280;66892;53.236;6.550;2023-06-19T08:22:55;101128.81;;;21.13;76.63
77725;BME280;66892;53.236;6.550;2023-06-19T08:25:22;101132.94;;;21.22;76.17
77725;BME280;66892;53.236;6.550;2023-06-19T08:27:48;101135.88;;;21.36;75.61
77725;BME280;66892;53.236;6.550;2023-06-19T08:30:15;101136.94;;;21.53;74.97
77725;BME280;66892;53.236;6.550;2023-06-19T08:32:43;101145.38;;;21.65;74.10
77725;BME280;66892;53.236;6.550;2023-06-19T08:35:09;101148.22;;;21.82;72.98
77725;BME280;66892;53.236;6.550;2023-06-19T08:37:35;101161.75;;;22.00;72.48
77725;BME280;66892;53.236;6.550;2023-06-19T08:40:01;101155.47;;;22.20;71.96
77725;BME280;66892;53.236;6.550;2023-06-19T08:42:29;101165.31;;;22.40;70.67
77725;BME280;66892;53.236;6.550;2023-06-19T08:44:55;101171.00;;;22.52;69.63
77725;BME280;66892;53.236;6.550;2023-06-19T08:47:29;101172.75;;;22.53;69.40
77725;BME280;66892;53.236;6.550;2023-06-19T08:49:55;101179.38;;;22.46;68.97
77725;BME280;66892;53.236;6.550;2023-06-19T08:52:21;101174.19;;;22.42;69.42
77725;BME280;66892;53.236;6.550;2023-06-19T08:54:47;101177.16;;;22.36;68.69
77725;BME280;66892;53.236;6.550;2023-06-19T08:57:13;101174.72;;;22.31;69.32
77725;BME280;66892;53.236;6.550;2023-06-19T08:59:39;101184.31;;;22.18;69.08
77725;BME280;66892;53.236;6.550;2023-06-19T09:02:06;101177.78;;;22.03;69.55
77725;BME280;66892;53.236;6.550;2023-06-19T09:04:33;101174.84;;;21.89;70.46
77725;BME280;66892;53.236;6.550;2023-06-19T09:07:01;101192.41;;;21.98;70.35
77725;BME280;66892;53.236;6.550;2023-06-19T09:09:28;101192.84;;;22.28;69.49
77725;BME280;66892;53.236;6.550;2023-06-19T09:11:57;101195.69;;;22.62;68.61
77725;BME280;66892;53.236;6.550;2023-06-19T09:14:24;101189.94;;;23.07;66.17
77725;BME280;66892;53.236;6.550;2023-06-19T09:16:56;101198.19;;;23.57;64.91
77725;BME280;66892;53.236;6.550;2023-06-19T09:19:22;101201.69;;;24.10;61.83
77725;BME280;66892;53.236;6.550;2023-06-19T09:21:49;101201.03;;;24.40;60.82
77725;BME280;66892;53.236;6.550;2023-06-19T09:24:16;101203.09;;;24.35;60.77
77725;BME280;66892;53.236;6.550;2023-06-19T09:26:42;101200.31;;;24.36;60.20
77725;BME280;66892;53.236;6.550;2023-06-19T09:29:12;101205.94;;;24.32;60.50
77725;BME280;66892;53.236;6.550;2023-06-19T09:31:38;101202.81;;;24.24;60.65
77725;BME280;66892;53.236;6.550;2023-06-19T09:34:07;101210.22;;;24.20;60.88
77725;BME280;66892;53.236;6.550;2023-06-19T09:36:34;101217.84;;;24.12;60.76
77725;BME280;66892;53.236;6.550;2023-06-19T09:39:03;101221.16;;;24.00;60.34
77725;BME280;66892;53.236;6.550;2023-06-19T09:41:30;101234.56;;;23.67;60.62
77725;BME280;66892;53.236;6.550;2023-06-19T09:43:57;101232.13;;;23.27;61.79
77725;BME280;66892;53.236;6.550;2023-06-19T09:46:27;101228.34;;;22.93;63.14
77725;BME280;66892;53.236;6.550;2023-06-19T09:48:55;101242.19;;;22.67;63.49
77725;BME280;66892;53.236;6.550;2023-06-19T09:51:29;101240.63;;;22.62;64.26
77725;BME280;66892;53.236;6.550;2023-06-19T09:53:57;101255.06;;;22.60;64.55
77725;BME280;66892;53.236;6.550;2023-06-19T09:56:27;101260.25;;;22.65;63.83
77725;BME280;66892;53.236;6.550;2023-06-19T09:58:55;101260.44;;;22.60;63.82
77725;BME280;66892;53.236;6.550;2023-06-19T10:01:22;101260.81;;;22.53;63.55
77725;BME280;66892;53.236;6.550;2023-06-19T10:03:49;101263.38;;;22.56;63.35
77725;BME280;66892;53.236;6.550;2023-06-19T10:06:16;101267.94;;;22.54;63.12
77725;BME280;66892;53.236;6.550;2023-06-19T10:08:44;101264.72;;;22.46;63.30
77725;BME280;66892;53.236;6.550;2023-06-19T10:11:10;101270.25;;;22.43;63.55
77725;BME280;66892;53.236;6.550;2023-06-19T10:13:39;101272.22;;;22.39;63.72
77725;BME280;66892;53.236;6.550;2023-06-19T10:16:06;101273.81;;;22.25;63.78
77725;BME280;66892;53.236;6.550;2023-06-19T10:18:43;101271.97;;;22.05;64.16
77725;BME280;66892;53.236;6.550;2023-06-19T10:21:15;101281.81;;;21.84;64.72
77725;BME280;66892;53.236;6.550;2023-06-19T10:23:41;101278.16;;;21.65;65.22
77725;BME280;66892;53.236;6.550;2023-06-19T10:26:07;101273.91;;;21.60;65.76
77725;BME280;66892;53.236;6.550;2023-06-19T10:28:34;101279.72;;;21.49;65.92
77725;BME280;66892;53.236;6.550;2023-06-19T10:31:03;101286.13;;;21.46;66.04
77725;BME280;66892;53.236;6.550;2023-06-19T10:33:31;101286.94;;;21.48;66.13
77725;BME280;66892;53.236;6.550;2023-06-19T10:35:58;101285.59;;;21.59;65.62
77725;BME280;66892;53.236;6.550;2023-06-19T10:38:25;101282.00;;;21.60;65.95
77725;BME280;66892;53.236;6.550;2023-06-19T10:40:52;101296.75;;;21.71;65.84
77725;BME280;66892;53.236;6.550;2023-06-19T10:43:22;101291.91;;;22.01;64.65
77725;BME280;66892;53.236;6.550;2023-06-19T10:45:51;101294.38;;;22.46;63.69
77725;BME280;66892;53.236;6.550;2023-06-19T10:48:20;101296.50;;;22.78;62.43
77725;BME280;66892;53.236;6.550;2023-06-19T10:50:47;101286.47;;;22.82;61.71
77725;BME280;66892;53.236;6.550;2023-06-19T10:53:23;101293.47;;;22.86;61.62
77725;BME280;66892;53.236;6.550;2023-06-19T10:55:54;101294.94;;;23.12;61.25
77725;BME280;66892;53.236;6.550;2023-06-19T10:58:20;101292.69;;;23.40;60.65
77725;BME280;66892;53.236;6.550;2023-06-19T11:00:47;101287.91;;;23.45;59.40
77725;BME280;66892;53.236;6.550;2023-06-19T11:03:13;101290.09;;;23.55;58.98
77725;BME280;66892;53.236;6.550;2023-06-19T11:05:43;101293.50;;;23.76;58.48
77725;BME280;66892;53.236;6.550;2023-06-19T11:08:09;101289.34;;;23.88;58.15
77725;BME280;66892;53.236;6.550;2023-06-19T11:10:35;101295.22;;;23.79;58.45
77725;BME280;66892;53.236;6.550;2023-06-19T11:13:01;101294.31;;;23.95;57.74
77725;BME280;66892;53.236;6.550;2023-06-19T11:15:28;101300.16;;;24.22;57.69
77725;BME280;66892;53.236;6.550;2023-06-19T11:17:55;101303.00;;;24.02;57.15
77725;BME280;66892;53.236;6.550;2023-06-19T11:20:21;101304.44;;;23.92;57.96
77725;BME280;66892;53.236;6.550;2023-06-19T11:22:54;101308.66;;;24.14;57.41
77725;BME280;66892;53.236;6.550;2023-06-19T11:25:21;101307.00;;;24.46;57.15
77725;BME280;66892;53.236;6.550;2023-06-19T11:27:47;101302.19;;;24.69;56.15
77725;BME280;66892;53.236;6.550;2023-06-19T11:30:18;101302.44;;;24.97;54.48
77725;BME280;66892;53.236;6.550;2023-06-19T11:32:46;101301.22;;;25.02;55.38
77725;BME280;66892;53.236;6.550;2023-06-19T11:35:16;101307.09;;;25.10;54.62
77725;BME280;66892;53.236;6.550;2023-06-19T11:37:43;101296.25;;;25.57;51.75
77725;BME280;66892;53.236;6.550;2023-06-19T11:40:11;101304.28;;;25.43;52.75
77725;BME280;66892;53.236;6.550;2023-06-19T11:42:46;101308.38;;;25.35;51.78
77725;BME280;66892;53.236;6.550;2023-06-19T11:45:12;101314.34;;;25.26;51.84
77725;BME280;66892;53.236;6.550;2023-06-19T11:47:38;101318.16;;;25.22;51.93
77725;BME280;66892;53.236;6.550;2023-06-19T11:50:06;101305.44;;;25.55;51.71
77725;BME280;66892;53.236;6.550;2023-06-19T11:52:32;101305.44;;;25.55;50.29
77725;BME280;66892;53.236;6.550;2023-06-19T11:54:58;101308.03;;;25.72;50.25
77725;BME280;66892;53.236;6.550;2023-06-19T11:57:26;101310.84;;;26.16;49.59
77725;BME280;66892;53.236;6.550;2023-06-19T11:59:52;101311.84;;;26.43;48.56
77725;BME280;66892;53.236;6.550;2023-06-19T12:02:18;101312.59;;;26.01;48.82
77725;BME280;66892;53.236;6.550;2023-06-19T12:04:44;101299.25;;;25.68;50.27
77725;BME280;66892;53.236;6.550;2023-06-19T12:07:11;101306.22;;;26.02;49.67
77725;BME280;66892;53.236;6.550;2023-06-19T12:09:37;101314.53;;;25.99;49.36
77725;BME280;66892;53.236;6.550;2023-06-19T12:12:06;101316.28;;;26.00;49.50
77725;BME280;66892;53.236;6.550;2023-06-19T12:14:33;101308.75;;;25.60;50.24
77725;BME280;66892;53.236;6.550;2023-06-19T12:16:59;101314.53;;;25.54;50.10
77725;BME280;66892;53.236;6.550;2023-06-19T12:19:26;101312.38;;;25.43;50.95
77725;BME280;66892;53.236;6.550;2023-06-19T12:21:53;101311.88;;;25.37;51.16
77725;BME280;66892;53.236;6.550;2023-06-19T12:24:19;101316.44;;;25.36;51.25
77725;BME280;66892;53.236;6.550;2023-06-19T12:26:45;101331.91;;;25.50;50.74
77725;BME280;66892;53.236;6.550;2023-06-19T12:29:11;101331.16;;;25.46;50.29
77725;BME280;66892;53.236;6.550;2023-06-19T12:31:39;101327.94;;;25.40;50.69
77725;BME280;66892;53.236;6.550;2023-06-19T12:34:05;101336.69;;;25.45;50.06
77725;BME280;66892;53.236;6.550;2023-06-19T12:36:31;101334.69;;;25.33;50.31
77725;BME280;66892;53.236;6.550;2023-06-19T12:38:59;101334.59;;;25.18;51.16
77725;BME280;66892;53.236;6.550;2023-06-19T12:41:26;101347.88;;;25.39;50.31
77725;BME280;66892;53.236;6.550;2023-06-19T12:43:52;101342.53;;;25.37;50.43
77725;BME280;66892;53.236;6.550;2023-06-19T12:46:18;101342.25;;;25.59;49.69
77725;BME280;66892;53.236;6.550;2023-06-19T12:48:45;101348.75;;;25.86;48.76